createdAt,value
2019-06-01T00:00:14.103Z,56.02
2019-06-01T00:01:09.053Z,55.93
2019-06-01T00:02:09.074Z,55.35
2019-06-01T00:03:09.117Z,55.64
2019-06-01T00:04:09.119Z,55.83
2019-06-01T00:05:09.145Z,56.22
2019-06-01T00:06:09.169Z,56.31
2019-06-01T00:07:09.193Z,55.45
2019-06-01T00:08:09.213Z,56.51
2019-06-01T00:09:09.239Z,55.74
2019-06-01T00:10:09.264Z,55.64
2019-06-01T00:11:09.283Z,55.64
2019-06-01T00:12:09.308Z,55.45
2019-06-01T00:13:09.343Z,55.16
2019-06-01T00:14:09.358Z,55.45
2019-06-01T00:15:09.363Z,54.68
2019-06-01T00:16:09.387Z,54.58
2019-06-01T00:17:09.416Z,54.68
2019-06-01T00:18:09.434Z,54.58
2019-06-01T00:19:09.459Z,55.07
2019-06-01T00:20:09.482Z,55.16
2019-06-01T00:23:09.559Z,54.78
2019-06-01T00:24:09.580Z,55.45
2019-06-01T00:25:09.603Z,54.97
2019-06-01T00:26:09.619Z,55.35
2019-06-01T00:27:09.398Z,54.97
2019-06-01T00:28:24.330Z,55.45
2019-06-01T00:29:09.703Z,55.74
2019-06-01T00:30:09.718Z,55.93
2019-06-01T00:31:09.736Z,56.12
2019-06-01T00:32:09.761Z,56.51
2019-06-01T00:33:09.783Z,55.52
2019-06-01T00:34:09.807Z,56.48
2019-06-01T00:35:09.855Z,55.9
2019-06-01T00:36:09.859Z,56.38
2019-06-01T00:37:09.873Z,56.09
2019-06-01T00:38:09.899Z,56
2019-06-01T00:39:09.925Z,55.9
2019-06-01T00:40:09.950Z,55.52
2019-06-01T00:41:09.968Z,56.19
2019-06-01T00:43:10.013Z,56.19
2019-06-01T00:44:24.715Z,56.96
2019-06-01T00:45:10.059Z,57.15
2019-06-01T00:46:10.087Z,56.19
2019-06-01T00:47:10.105Z,55.23
2019-06-01T00:48:10.136Z,55.42
2019-06-01T00:49:10.156Z,55.62
2019-06-01T00:50:10.174Z,55.62
2019-06-01T00:51:10.200Z,54.94
2019-06-01T00:52:10.222Z,55.04
2019-06-01T00:53:10.257Z,54.94
2019-06-01T00:54:10.293Z,55.33
2019-06-01T00:55:10.308Z,55.23
2019-06-01T00:56:10.329Z,55.13
2019-06-01T00:57:10.349Z,54.94
2019-06-01T00:58:10.375Z,54.46
2019-06-01T00:59:10.402Z,54.37
2019-06-01T01:00:25.075Z,54.66
2019-06-01T01:01:10.191Z,54.37
2019-06-01T01:03:10.495Z,55.13
2019-06-01T01:04:10.512Z,55.04
2019-06-01T01:05:10.539Z,54.94
2019-06-01T01:06:10.561Z,55.13
2019-06-01T01:07:10.586Z,55.13
2019-06-01T01:08:10.614Z,55.04
2019-06-01T01:09:10.629Z,55.33
2019-06-01T01:10:10.651Z,55.52
2019-06-01T01:11:10.672Z,55.23
2019-06-01T01:12:10.701Z,56.09
2019-06-01T01:13:10.720Z,56
2019-06-01T01:14:10.743Z,56.48
2019-06-01T01:15:10.812Z,57.15
2019-06-01T01:16:25.444Z,57.12
2019-06-01T01:17:10.811Z,56.93
2019-06-01T01:18:10.853Z,57.24
2019-06-01T01:19:10.857Z,57.53
2019-06-01T01:20:10.882Z,57.31
2019-06-01T01:21:10.916Z,57.03
2019-06-01T01:22:10.925Z,56.67
2019-06-01T01:23:10.988Z,56.35
2019-06-01T01:24:10.985Z,55.78
2019-06-01T01:25:10.997Z,56.16
2019-06-01T01:26:10.795Z,56.35
2019-06-01T01:27:11.041Z,57.12
2019-06-01T01:28:11.070Z,56.26
2019-06-01T01:29:11.088Z,56.07
2019-06-01T01:30:11.115Z,55.97
2019-06-01T01:31:25.790Z,55.68
2019-06-01T01:33:11.180Z,56.16
2019-06-01T01:34:11.202Z,56.07
2019-06-01T01:35:11.226Z,56.83
2019-06-01T01:36:11.262Z,57.12
2019-06-01T01:37:11.272Z,57.03
2019-06-01T01:38:11.296Z,57.21
2019-06-01T01:39:11.331Z,57.21
2019-06-01T01:40:11.356Z,57.12
2019-06-01T01:41:11.111Z,57.03
2019-06-01T01:42:11.392Z,57.12
2019-06-01T01:43:11.413Z,57.5
2019-06-01T01:44:11.431Z,57.31
2019-06-01T01:45:11.455Z,56.99
2019-06-01T01:46:11.477Z,57.89
2019-06-01T01:47:14.287Z,57.89
2019-06-01T01:48:11.534Z,58.37
2019-06-01T01:49:11.546Z,58.27
2019-06-01T01:51:11.591Z,58.75
2019-06-01T01:52:11.616Z,58.75
2019-06-01T01:53:11.638Z,59.33
2019-06-01T01:54:11.662Z,58.44
2019-06-01T01:55:11.685Z,58.53
2019-06-01T01:56:11.707Z,59.11
2019-06-01T01:57:11.729Z,59.48
2019-06-01T01:58:11.751Z,59.58
2019-06-01T01:59:11.794Z,59.11
2019-06-01T02:00:11.798Z,58.53
2019-06-01T02:01:24.425Z,58.53
2019-06-01T02:02:11.842Z,58.53
2019-06-01T02:03:26.525Z,58.81
2019-06-01T02:04:11.894Z,58.62
2019-06-01T02:05:11.912Z,58.81
2019-06-01T02:06:11.939Z,58.91
2019-06-01T02:07:11.959Z,58.15
2019-06-01T02:08:11.982Z,57.95
2019-06-01T02:09:12.010Z,57.38
2019-06-01T02:10:12.027Z,57.48
2019-06-01T02:11:12.053Z,56.9
2019-06-01T02:12:12.076Z,57.19
2019-06-01T02:13:12.094Z,57.57
2019-06-01T02:14:12.118Z,57.09
2019-06-01T02:15:12.140Z,57.28
2019-06-01T02:16:12.174Z,57.19
2019-06-01T02:17:12.197Z,57.09
2019-06-01T02:18:12.219Z,56.99
2019-06-01T02:19:26.886Z,56.32
2019-06-01T02:20:12.254Z,55.36
2019-06-01T02:21:12.274Z,55.56
2019-06-01T02:22:12.318Z,55.08
2019-06-01T02:23:12.324Z,55.46
2019-06-01T02:24:12.347Z,55.85
2019-06-01T02:25:12.366Z,55.65
2019-06-01T02:26:12.389Z,55.27
2019-06-01T02:27:12.412Z,55.85
2019-06-01T02:28:12.434Z,55.85
2019-06-01T02:29:12.459Z,55.85
2019-06-01T02:30:12.486Z,55.08
2019-06-01T02:31:12.535Z,55.08
2019-06-01T02:32:12.525Z,55.46
2019-06-01T02:33:12.554Z,54.5
2019-06-01T02:34:12.577Z,54.7
2019-06-01T02:35:27.248Z,54.6
2019-06-01T02:36:12.620Z,54.5
2019-06-01T02:37:12.649Z,54.6
2019-06-01T02:38:12.668Z,54.6
2019-06-01T02:39:12.686Z,53.74
2019-06-01T02:40:12.707Z,53.74
2019-06-01T02:41:12.719Z,53.74
2019-06-01T02:42:12.758Z,54.41
2019-06-01T02:43:12.772Z,54.79
2019-06-01T02:44:12.783Z,54.99
2019-06-01T02:48:12.630Z,54.6
2019-06-01T02:49:12.903Z,54.7
2019-06-01T02:50:13.133Z,54.89
2019-06-01T02:51:27.606Z,54.5
2019-06-01T02:52:12.966Z,54.41
2019-06-01T02:53:12.987Z,54.6
2019-06-01T02:54:13.015Z,54.41
2019-06-01T02:55:13.032Z,54.99
2019-06-01T02:56:13.057Z,55.85
2019-06-01T02:57:13.085Z,55.75
2019-06-01T03:00:13.147Z,55.08
2019-06-01T03:02:17.209Z,55.36
2019-06-01T03:03:13.222Z,55.08
2019-06-01T03:04:13.245Z,55.08
2019-06-01T03:05:13.259Z,55.08
2019-06-01T03:06:27.949Z,54.5
2019-06-01T03:07:13.311Z,54.6
2019-06-01T03:08:13.326Z,53.55
2019-06-01T03:09:13.349Z,46.17
2019-06-01T03:10:13.375Z,48.57
2019-06-01T03:11:13.396Z,49.71
2019-06-01T03:12:13.427Z,50.96
2019-06-01T03:13:13.440Z,51.06
2019-06-01T03:14:13.518Z,51.34
2019-06-01T03:15:13.484Z,51.34
2019-06-01T03:16:13.507Z,51.63
2019-06-01T03:17:14.595Z,51.73
2019-06-01T03:18:14.261Z,51.34
2019-06-01T03:19:14.554Z,51.82
2019-06-01T03:20:14.296Z,52.01
2019-06-01T03:21:14.414Z,52.3
2019-06-01T03:22:14.496Z,52.11
2019-06-01T03:23:14.517Z,51.82
2019-06-01T03:24:15.613Z,52.01
2019-06-01T03:25:14.752Z,51.73
2019-06-01T03:26:14.899Z,51.25
2019-06-01T03:27:14.878Z,50.96
2019-06-01T03:29:15.046Z,50.96
2019-06-01T03:30:17.646Z,51.06
2019-06-01T03:31:15.614Z,50.96
2019-06-01T03:32:37.451Z,51.34
2019-06-01T03:33:16.190Z,51.34
2019-06-01T03:34:15.752Z,51.44
2019-06-01T03:35:13.947Z,50.96
2019-06-01T03:37:13.986Z,51.37
2019-06-01T03:38:28.671Z,51.46
2019-06-01T03:39:15.425Z,51.28
2019-06-01T03:41:14.797Z,51.28
2019-06-01T03:42:14.217Z,51.08
2019-06-01T03:43:14.130Z,50.89
2019-06-01T03:44:15.427Z,50.7
2019-06-01T03:45:15.254Z,50.6
2019-06-01T03:46:15.464Z,50.7
2019-06-01T03:47:14.431Z,50.7
2019-06-01T03:48:15.406Z,50.6
2019-06-01T03:49:14.450Z,50.6
2019-06-01T03:50:15.625Z,50.99
2019-06-01T03:51:14.442Z,50.99
2019-06-01T03:52:15.494Z,51.56
2019-06-01T03:53:14.647Z,51.18
2019-06-01T03:54:29.037Z,51.78
2019-06-01T03:55:14.476Z,51.95
2019-06-01T03:56:14.418Z,51.68
2019-06-01T03:57:14.440Z,51.97
2019-06-01T03:59:14.486Z,52.64
2019-06-01T04:00:14.523Z,53.31
2019-06-01T04:01:14.531Z,53.89
2019-06-01T04:02:14.555Z,54.17
2019-06-01T04:03:14.578Z,53.6
2019-06-01T04:04:14.601Z,53.03
2019-06-01T04:05:14.624Z,53.12
2019-06-01T04:07:14.906Z,53.5
2019-06-01T04:08:14.694Z,54.66
2019-06-01T04:09:14.718Z,54.27
2019-06-01T04:10:29.403Z,54.21
2019-06-01T04:11:14.763Z,52.38
2019-06-01T04:12:14.790Z,51.83
2019-06-01T04:13:14.810Z,52.79
2019-06-01T04:14:14.834Z,53.68
2019-06-01T04:15:18.931Z,55.6
2019-06-01T04:16:14.883Z,56.85
2019-06-01T04:17:14.655Z,61.27
2019-06-01T04:18:16.436Z,64.53
2019-06-01T04:19:14.950Z,67.99
2019-06-01T04:20:14.979Z,69.81
2019-06-01T04:21:14.997Z,70.39
2019-06-01T04:22:15.023Z,70.87
2019-06-01T04:23:15.046Z,69.01
2019-06-01T04:24:15.110Z,69.91
2019-06-01T04:25:15.091Z,75
2019-06-01T04:26:29.781Z,72.34
2019-06-01T04:27:15.139Z,67.1
2019-06-01T04:28:15.179Z,74.05
2019-06-01T04:29:15.188Z,75.34
2019-06-01T04:31:15.317Z,64.12
2019-06-01T04:33:15.706Z,74.97
2019-06-01T04:34:15.578Z,87.64
2019-06-01T04:35:15.709Z,91.6
2019-06-01T04:36:15.544Z,82.92
2019-06-01T04:37:15.790Z,96.75
2019-06-01T04:39:16.231Z,96.61
2019-06-01T04:40:16.081Z,98.92
2019-06-01T04:41:30.155Z,99.99
2019-06-01T04:42:16.367Z,99.99
2019-06-01T04:43:16.634Z,99.99
2019-06-01T04:44:18.344Z,99.99
2019-06-01T04:45:16.815Z,99.99
2019-06-01T04:46:16.832Z,99.99
2019-06-01T04:47:16.917Z,99.99
2019-06-01T04:48:17.054Z,98.49
2019-06-01T04:50:15.729Z,94.62
2019-06-01T04:51:15.933Z,93.26
2019-06-01T04:52:15.752Z,92.92
2019-06-01T04:53:15.927Z,91.61
2019-06-01T04:54:18.069Z,89.03
2019-06-01T04:55:15.870Z,88.35
2019-06-01T04:56:15.901Z,88.06
2019-06-01T04:57:15.929Z,86.75
2019-06-01T04:58:15.966Z,84.36
2019-06-01T04:59:15.986Z,84.27
2019-06-01T05:00:29.599Z,81.14
2019-06-01T05:01:16.045Z,80.27
2019-06-01T05:02:16.077Z,79.14
2019-06-01T05:03:16.119Z,78.17
2019-06-01T05:04:16.136Z,80.02
2019-06-01T05:05:16.167Z,78.3
2019-06-01T05:06:16.198Z,75.32
2019-06-01T05:07:16.228Z,74.06
2019-06-01T05:08:16.388Z,76.4
2019-06-01T05:09:16.289Z,73.12
2019-06-01T05:10:18.097Z,70.23
2019-06-01T05:11:16.369Z,71.88
2019-06-01T05:12:16.382Z,72.17
2019-06-01T05:13:31.080Z,70.75
2019-06-01T05:14:16.687Z,69.81
2019-06-01T05:15:16.475Z,70.85
2019-06-01T05:16:17.328Z,71.66
2019-06-01T05:17:18.910Z,69.36
2019-06-01T05:18:19.312Z,68.97
2019-06-01T05:19:16.830Z,67.67
2019-06-01T05:20:17.198Z,66.96
2019-06-01T05:21:17.647Z,66.17
2019-06-01T05:22:17.044Z,65.72
2019-06-01T05:24:17.315Z,64.32
2019-06-01T05:25:17.790Z,63.44
2019-06-01T05:26:17.540Z,62.24
2019-06-01T05:27:17.698Z,62.27
2019-06-01T05:28:17.729Z,62.82
2019-06-01T05:29:31.592Z,61.69
2019-06-01T05:31:26.596Z,61.33
2019-06-01T05:32:17.089Z,61.04
2019-06-01T05:33:37.912Z,61.84
2019-06-01T05:34:18.582Z,62.23
2019-06-01T05:35:18.260Z,60.67
2019-06-01T05:36:18.636Z,61.13
2019-06-01T05:37:18.604Z,64.42
2019-06-01T05:38:18.478Z,64.84
2019-06-01T05:39:18.323Z,66.08
2019-06-01T05:40:19.627Z,67.5
2019-06-01T05:41:19.779Z,68.64
2019-06-01T05:42:17.354Z,71.01
2019-06-01T05:43:21.467Z,72.53
2019-06-01T05:44:17.439Z,73.02
2019-06-01T05:45:32.105Z,74.05
2019-06-01T05:46:18.514Z,75.7
2019-06-01T05:47:18.618Z,76.05
2019-06-01T05:48:29.954Z,77.08
2019-06-01T05:49:18.805Z,76.5
2019-06-01T05:50:18.785Z,78.11
2019-06-01T05:51:20.786Z,78.56
2019-06-01T05:52:19.045Z,79.82
2019-06-01T05:54:19.087Z,82.4
2019-06-01T05:55:19.140Z,81.77
2019-06-01T05:56:19.234Z,83.48
2019-06-01T05:58:19.479Z,83.48
2019-06-01T05:59:18.445Z,84.74
2019-06-01T06:00:18.854Z,84.06
2019-06-01T06:01:32.574Z,86.15
2019-06-01T06:02:17.938Z,85.76
2019-06-01T06:03:37.482Z,85.08
2019-06-01T06:04:17.992Z,86.3
2019-06-01T06:06:18.240Z,87.27
2019-06-01T06:07:19.257Z,88.95
2019-06-01T06:08:18.417Z,88.43
2019-06-01T06:09:19.476Z,88.81
2019-06-01T06:10:18.561Z,89.49
2019-06-01T06:11:19.360Z,88.81
2019-06-01T06:12:19.685Z,88.53
2019-06-01T06:13:19.299Z,88.53
2019-06-01T06:14:20.556Z,88.33
2019-06-01T06:15:19.623Z,89.39
2019-06-01T06:16:32.990Z,88.91
2019-06-01T06:17:22.006Z,87.75
2019-06-01T06:18:18.376Z,88.71
2019-06-01T06:19:23.780Z,89.78
2019-06-01T06:20:18.432Z,88.9
2019-06-01T06:21:18.668Z,85.46
2019-06-01T06:23:18.861Z,84.53
2019-06-01T06:24:18.803Z,84.24
2019-06-01T06:26:22.340Z,82.94
2019-06-01T06:27:18.863Z,83.52
2019-06-01T06:28:19.096Z,84
2019-06-01T06:29:19.301Z,83.33
2019-06-01T06:30:19.401Z,86.87
2019-06-01T06:31:19.431Z,86.87
2019-06-01T06:32:19.675Z,86.87
2019-06-01T06:33:19.796Z,86.23
2019-06-01T06:34:19.883Z,86.87
2019-06-01T06:35:19.825Z,85.9
2019-06-01T06:36:20.174Z,86.29
2019-06-01T06:37:20.019Z,87.6
2019-06-01T06:38:20.180Z,88.76
2019-06-01T06:39:20.287Z,89.59
2019-06-01T06:40:20.020Z,89.59
2019-06-01T06:41:20.257Z,88.62
2019-06-01T06:42:20.239Z,88.91
2019-06-01T06:43:32.805Z,89.78
2019-06-01T06:44:19.091Z,88.57
2019-06-01T06:45:19.120Z,90.32
2019-06-01T06:46:19.143Z,90.47
2019-06-01T06:47:19.172Z,89.89
2019-06-01T06:48:33.852Z,90.81
2019-06-01T06:49:19.495Z,91.14
2019-06-01T06:50:19.924Z,90.17
2019-06-01T06:51:19.673Z,88.67
2019-06-01T06:52:19.882Z,83.96
2019-06-01T06:53:35.618Z,79.43
2019-06-01T06:54:20.134Z,77.35
2019-06-01T06:55:20.213Z,72.08
2019-06-01T06:56:20.314Z,66.44
2019-06-01T06:57:20.402Z,63.18
2019-06-01T06:59:20.848Z,63.57
2019-06-01T07:00:20.871Z,62.76
2019-06-01T07:01:20.671Z,64.65
2019-06-01T07:02:20.777Z,66.73
2019-06-01T07:03:19.619Z,67.86
2019-06-01T07:04:34.297Z,68.64
2019-06-01T07:05:19.675Z,68.41
2019-06-01T07:06:19.772Z,66.41
2019-06-01T07:07:20.123Z,65.07
2019-06-01T07:08:20.088Z,63.48
2019-06-01T07:09:20.352Z,60.88
2019-06-01T07:10:20.414Z,58.59
2019-06-01T07:11:20.064Z,56.1
2019-06-01T07:12:19.870Z,55.13
2019-06-01T07:13:19.911Z,55.84
2019-06-01T07:14:19.933Z,54.86
2019-06-01T07:15:19.980Z,55.16
2019-06-01T07:16:20.003Z,53.25
2019-06-01T07:17:20.046Z,51.03
2019-06-01T07:18:20.086Z,52.55
2019-06-01T07:20:34.794Z,52.03
2019-06-01T07:21:20.191Z,53.23
2019-06-01T07:22:20.239Z,52.57
2019-06-01T07:23:20.248Z,49.16
2019-06-01T07:24:20.321Z,49.16
2019-06-01T07:25:20.301Z,49.65
2019-06-01T07:26:20.334Z,51.32
2019-06-01T07:27:20.389Z,48.3
2019-06-01T07:28:20.410Z,48.18
2019-06-01T07:29:20.470Z,46.46
2019-06-01T07:30:20.483Z,46.46
2019-06-01T07:31:20.493Z,48.52
2019-06-01T07:32:20.530Z,45.89
2019-06-01T07:33:20.588Z,49.53
2019-06-01T07:34:41.448Z,47.93
2019-06-01T07:35:20.689Z,47.79
2019-06-01T07:36:35.336Z,48.06
2019-06-01T07:37:20.785Z,48.96
2019-06-01T07:38:20.736Z,49.55
2019-06-01T07:39:20.777Z,47.1
2019-06-01T07:40:21.024Z,44.96
2019-06-01T07:41:20.849Z,46.91
2019-06-01T07:42:23.415Z,48.03
2019-06-01T07:43:20.909Z,48.82
2019-06-01T07:44:21.000Z,47.08
2019-06-01T07:46:21.041Z,48.18
2019-06-01T07:47:21.044Z,48.06
2019-06-01T07:48:21.127Z,48.01
2019-06-01T07:49:21.143Z,49.24
2019-06-01T07:50:22.247Z,47.3
2019-06-01T07:51:35.851Z,47.62
2019-06-01T07:52:22.580Z,46.78
2019-06-01T07:53:21.250Z,45.31
2019-06-01T07:54:22.621Z,44.94
2019-06-01T07:55:21.632Z,45.53
2019-06-01T07:56:22.795Z,44.73
2019-06-01T07:57:21.643Z,44.33
2019-06-01T07:58:23.125Z,46.31
2019-06-01T07:59:22.572Z,47.55
2019-06-01T08:00:22.763Z,48.5
2019-06-01T08:01:23.369Z,49.36
2019-06-01T08:02:23.232Z,48.94
2019-06-01T08:03:22.839Z,47.91
2019-06-01T08:04:22.818Z,45.41
2019-06-01T08:05:23.213Z,45.04
2019-06-01T08:06:22.359Z,44.4
2019-06-01T08:07:23.227Z,44.74
2019-06-01T08:09:22.576Z,44.45
2019-06-01T08:10:23.009Z,45.68
2019-06-01T08:11:24.262Z,46.27
2019-06-01T08:12:23.201Z,44.82
2019-06-01T08:13:21.943Z,42.63
2019-06-01T08:14:22.502Z,42.16
2019-06-01T08:15:22.002Z,44.24
2019-06-01T08:17:22.160Z,42.04
2019-06-01T08:18:22.225Z,41.47
2019-06-01T08:19:22.165Z,41.78
2019-06-01T08:20:22.217Z,40.98
2019-06-01T08:21:22.209Z,40.88
2019-06-01T08:22:22.257Z,39.82
2019-06-01T08:23:36.945Z,40.23
2019-06-01T08:24:22.433Z,40.39
2019-06-01T08:25:22.349Z,40.39
2019-06-01T08:26:22.626Z,41.92
2019-06-01T08:27:22.540Z,41.17
2019-06-01T08:28:22.468Z,40.58
2019-06-01T08:29:22.645Z,41.47
2019-06-01T08:30:22.627Z,40.48
2019-06-01T08:31:22.647Z,38.76
2019-06-01T08:32:22.743Z,39.9
2019-06-01T08:33:26.164Z,41.53
2019-06-01T08:34:22.775Z,42
2019-06-01T08:36:23.199Z,42.94
2019-06-01T08:37:23.452Z,42.37
2019-06-01T08:38:23.322Z,43.19
2019-06-01T08:39:37.499Z,42.24
2019-06-01T08:40:23.276Z,41.71
2019-06-01T08:41:23.363Z,41.61
2019-06-01T08:42:23.404Z,42
2019-06-01T08:43:23.506Z,42.02
2019-06-01T08:44:23.535Z,41.35
2019-06-01T08:45:23.509Z,41.53
2019-06-01T08:46:23.655Z,41.03
2019-06-01T08:47:23.582Z,40.66
2019-06-01T08:48:23.645Z,41.16
2019-06-01T08:49:23.877Z,39.88
2019-06-01T08:50:23.787Z,41.17
2019-06-01T08:51:23.932Z,42.92
2019-06-01T08:52:23.841Z,40.17
2019-06-01T08:53:23.788Z,41.17
2019-06-01T08:54:23.993Z,41.35
2019-06-01T08:55:38.047Z,41.14
2019-06-01T08:56:24.513Z,42.71
2019-06-01T08:57:24.167Z,41.33
2019-06-01T08:58:24.159Z,42.68
2019-06-01T08:59:24.188Z,42.39
2019-06-01T09:00:24.337Z,42.79
2019-06-01T09:01:24.489Z,43.05
2019-06-01T09:02:24.522Z,42.86
2019-06-01T09:03:23.660Z,44.12
2019-06-01T09:04:24.550Z,44.29
2019-06-01T09:06:24.811Z,43.77
2019-06-01T09:07:24.821Z,43.8
2019-06-01T09:08:27.091Z,43.13
2019-06-01T09:09:24.894Z,42.27
2019-06-01T09:10:25.200Z,42.88
2019-06-01T09:11:38.586Z,43.47
2019-06-01T09:12:25.087Z,42.68
2019-06-01T09:13:25.059Z,43.82
2019-06-01T09:14:25.135Z,44.48
2019-06-01T09:15:25.454Z,44.46
2019-06-01T09:16:25.334Z,44.29
2019-06-01T09:17:25.251Z,43.9
2019-06-01T09:18:25.612Z,43.02
2019-06-01T09:19:25.344Z,41.66
2019-06-01T09:21:25.309Z,42.27
2019-06-01T09:22:25.334Z,44.85
2019-06-01T09:23:25.427Z,46.75
2019-06-01T09:24:25.729Z,46.99
2019-06-01T09:25:25.525Z,46.55
2019-06-01T09:26:39.088Z,43.95
2019-06-01T09:27:25.584Z,43.52
2019-06-01T09:28:25.664Z,43.82
2019-06-01T09:29:25.730Z,43.8
2019-06-01T09:30:25.783Z,44.83
2019-06-01T09:31:26.130Z,45.79
2019-06-01T09:32:25.983Z,46.62
2019-06-01T09:33:25.966Z,47.09
2019-06-01T09:34:26.079Z,47.38
2019-06-01T09:35:44.626Z,47.14
2019-06-01T09:36:24.752Z,46.53
2019-06-01T09:37:24.782Z,46.82
2019-06-01T09:38:24.811Z,45.67
2019-06-01T09:40:24.881Z,45.23
2019-06-01T09:41:24.963Z,43.09
2019-06-01T09:42:24.940Z,43.51
2019-06-01T09:43:24.972Z,43.52
2019-06-01T09:44:25.006Z,44.41
2019-06-01T09:45:25.044Z,42.74
2019-06-01T09:46:25.070Z,42.96
2019-06-01T09:47:25.105Z,43.66
2019-06-01T09:48:25.144Z,43.96
2019-06-01T09:49:25.171Z,43.74
2019-06-01T09:50:25.200Z,45.05
2019-06-01T09:51:25.234Z,45.17
2019-06-01T09:52:25.270Z,46.72
2019-06-01T09:54:25.348Z,45.81
2019-06-01T09:55:25.366Z,47.08
2019-06-01T09:56:25.396Z,47.28
2019-06-01T09:57:25.426Z,46.03
2019-06-01T09:58:40.127Z,46.62
2019-06-01T09:59:25.490Z,46.57
2019-06-01T10:00:25.523Z,47.63
2019-06-01T10:01:25.555Z,46.53
2019-06-01T10:02:25.587Z,47.38
2019-06-01T10:03:25.621Z,47.33
2019-06-01T10:04:25.653Z,46.55
2019-06-01T10:05:25.743Z,46.65
2019-06-01T10:06:25.714Z,46.97
2019-06-01T10:07:25.748Z,44.93
2019-06-01T10:09:25.809Z,44.19
2019-06-01T10:10:25.842Z,43.52
2019-06-01T10:11:25.874Z,43.43
2019-06-01T10:12:25.906Z,42.84
2019-06-01T10:13:25.939Z,43.55
2019-06-01T10:14:40.636Z,42.39
2019-06-01T10:15:26.001Z,42.19
2019-06-01T10:16:26.042Z,42.57
2019-06-01T10:17:26.126Z,42.98
2019-06-01T10:18:30.785Z,41.8
2019-06-01T10:19:26.130Z,41.9
2019-06-01T10:20:26.161Z,41.61
2019-06-01T10:21:26.256Z,42.96
2019-06-01T10:22:26.226Z,43.52
2019-06-01T10:23:26.258Z,43.33
2019-06-01T10:24:26.302Z,41.61
2019-06-01T10:25:26.346Z,42.45
2019-06-01T10:26:26.356Z,41.58
2019-06-01T10:27:26.386Z,42.1
2019-06-01T10:28:26.419Z,43.43
2019-06-01T10:29:26.477Z,44.31
2019-06-01T10:30:42.012Z,43.82
2019-06-01T10:31:26.518Z,43.99
2019-06-01T10:32:26.547Z,43.6
2019-06-01T10:33:26.582Z,44.17
2019-06-01T10:34:26.611Z,44.17
2019-06-01T10:35:26.644Z,46.2
2019-06-01T10:36:26.676Z,46.2
2019-06-01T10:37:26.723Z,46.59
2019-06-01T10:38:26.768Z,45.13
2019-06-01T10:39:26.773Z,45.76
2019-06-01T10:40:26.808Z,47.5
2019-06-01T10:41:26.835Z,47.77
2019-06-01T10:42:26.887Z,48.05
2019-06-01T10:43:26.904Z,48.44
2019-06-01T10:44:26.934Z,48.26
2019-06-01T10:45:26.983Z,48.44
2019-06-01T10:46:42.133Z,48.93
2019-06-01T10:47:27.029Z,49.58
2019-06-01T10:48:27.060Z,50.85
2019-06-01T10:49:26.843Z,49.68
2019-06-01T10:50:27.122Z,49.56
2019-06-01T10:51:27.156Z,50.34
2019-06-01T10:52:27.182Z,50.92
2019-06-01T10:53:27.218Z,50.65
2019-06-01T10:54:27.246Z,50.65
2019-06-01T10:56:27.308Z,49.46
2019-06-01T10:57:27.382Z,50.92
2019-06-01T10:59:27.400Z,50.6
2019-06-01T11:00:46.607Z,49.46
2019-06-01T11:01:42.711Z,50.6
2019-06-01T11:02:27.503Z,51.85
2019-06-01T11:03:27.526Z,51.75
2019-06-01T11:04:27.557Z,51.19
2019-06-01T11:05:27.697Z,50.6
2019-06-01T11:06:44.584Z,50.51
2019-06-01T11:07:27.648Z,50.9
2019-06-01T11:08:27.682Z,50.02
2019-06-01T11:09:27.734Z,50.41
2019-06-01T11:10:27.739Z,50.58
2019-06-01T11:11:27.771Z,50.7
2019-06-01T11:14:27.888Z,51.19
2019-06-01T11:15:27.891Z,50.38
2019-06-01T11:16:27.921Z,51.85
2019-06-01T11:17:27.951Z,52.12
2019-06-01T11:18:27.983Z,50.68
2019-06-01T11:19:28.011Z,50.58
2019-06-01T11:20:28.039Z,50.78
2019-06-01T11:21:28.085Z,52.04
2019-06-01T11:22:28.099Z,51.29
2019-06-01T11:24:28.160Z,50.53
2019-06-01T11:25:28.190Z,49.66
2019-06-01T11:28:28.286Z,49.27
2019-06-01T11:29:28.311Z,49.54
2019-06-01T11:30:28.338Z,50.02
2019-06-01T11:31:28.423Z,50.99
2019-06-01T11:32:28.397Z,50.78
2019-06-01T11:33:44.255Z,50.78
2019-06-01T11:34:28.461Z,50.58
2019-06-01T11:35:28.489Z,50.78
2019-06-01T11:36:28.517Z,50.02
2019-06-01T11:37:28.551Z,50.9
2019-06-01T11:38:28.577Z,50.99
2019-06-01T11:39:28.606Z,50.21
2019-06-01T11:40:28.641Z,49.66
2019-06-01T11:41:28.674Z,49.56
2019-06-01T11:42:28.696Z,52.09
2019-06-01T11:43:28.725Z,48.78
2019-06-01T11:44:28.752Z,49
2019-06-01T11:45:28.787Z,48.71
2019-06-01T11:47:28.845Z,49.17
2019-06-01T11:48:28.876Z,50.24
2019-06-01T11:49:43.569Z,49.56
2019-06-01T11:50:28.936Z,49.19
2019-06-01T11:51:28.972Z,48.41
2019-06-01T11:52:28.994Z,48.22
2019-06-01T11:53:29.026Z,48.19
2019-06-01T11:54:29.051Z,48.29
2019-06-01T11:55:29.082Z,49.34
2019-06-01T11:56:29.108Z,48.85
2019-06-01T11:57:29.140Z,48.85
2019-06-01T11:58:29.167Z,49.54
2019-06-01T11:59:29.201Z,48.95
2019-06-01T12:00:29.231Z,49.44
2019-06-01T12:01:29.262Z,48.56
2019-06-01T12:03:29.315Z,47.8
2019-06-01T12:04:29.344Z,48.97
2019-06-01T12:05:44.193Z,49.17
2019-06-01T12:06:29.413Z,48.29
2019-06-01T12:07:29.445Z,48.78
2019-06-01T12:08:33.742Z,49.37
2019-06-01T12:09:29.492Z,48.49
2019-06-01T12:10:29.521Z,48
2019-06-01T12:11:29.568Z,48.22
2019-06-01T12:12:29.584Z,48.22
2019-06-01T12:13:29.614Z,48.02
2019-06-01T12:14:29.639Z,47.8
2019-06-01T12:15:29.519Z,46.95
2019-06-01T12:16:29.702Z,47.78
2019-06-01T12:17:29.772Z,48.17
2019-06-01T12:18:29.756Z,48.58
2019-06-01T12:19:29.786Z,49.07
2019-06-01T12:20:29.815Z,48.1
2019-06-01T12:21:45.217Z,48.97
2019-06-01T12:22:29.873Z,48.29
2019-06-01T12:23:29.903Z,48.36
2019-06-01T12:24:29.936Z,50.31
2019-06-01T12:25:30.007Z,49.54
2019-06-01T12:26:29.996Z,50.41
2019-06-01T12:28:30.055Z,49.37
2019-06-01T12:29:29.867Z,48.75
2019-06-01T12:30:30.110Z,48.36
2019-06-01T12:31:30.159Z,49.34
2019-06-01T12:33:30.200Z,50.26
2019-06-01T12:34:30.224Z,50.97
2019-06-01T12:35:30.256Z,50.7
2019-06-01T12:36:46.274Z,49.54
2019-06-01T12:38:24.662Z,49.83
2019-06-01T12:38:49.296Z,49.24
2019-06-01T12:39:55.321Z,49.61
2019-06-01T12:40:49.828Z,48.44
2019-06-01T12:41:50.241Z,49.8
2019-06-01T12:42:50.197Z,50.97
2019-06-01T12:43:50.168Z,49.54
2019-06-01T12:44:50.293Z,48.36
2019-06-01T12:46:05.287Z,48.46
2019-06-01T12:46:49.678Z,48.24
2019-06-01T12:47:58.424Z,47.85
2019-06-01T12:48:50.784Z,46.61
2019-06-01T12:49:50.690Z,48.27
2019-06-01T12:50:53.145Z,47.19
2019-06-01T12:52:04.324Z,47.49
2019-06-01T12:52:50.953Z,47.8
2019-06-01T12:54:49.495Z,47.12
2019-06-01T12:55:49.775Z,47.61
2019-06-01T12:56:53.065Z,48.19
2019-06-01T12:57:49.833Z,46.46
2019-06-01T12:58:50.665Z,46.63
2019-06-01T12:59:51.183Z,47.71
2019-06-01T13:00:50.805Z,47.9
2019-06-01T13:01:51.285Z,47.41
2019-06-01T13:03:06.868Z,47.12
2019-06-01T13:04:52.823Z,47.19
2019-06-01T13:05:50.206Z,48.17
2019-06-01T13:06:54.357Z,48.63
2019-06-01T13:08:04.788Z,47.56
2019-06-01T13:08:51.305Z,47.85
2019-06-01T13:09:50.745Z,49.51
2019-06-01T13:10:50.216Z,47.97
2019-06-01T13:11:51.436Z,47.39
2019-06-01T13:12:52.232Z,47.97
2019-06-01T13:13:51.668Z,48.27
2019-06-01T13:14:52.156Z,47.39
2019-06-01T13:15:51.719Z,47.19
2019-06-01T13:17:07.675Z,46.7
2019-06-01T13:17:51.795Z,47
2019-06-01T13:19:51.962Z,45.81
2019-06-01T13:20:51.905Z,45.71
2019-06-01T13:21:52.477Z,46.1
2019-06-01T13:22:51.827Z,47.09
2019-06-01T13:24:05.252Z,47
2019-06-01T13:24:51.877Z,47.09
2019-06-01T13:25:51.838Z,46.8
2019-06-01T13:26:51.919Z,46.9
2019-06-01T13:28:50.759Z,47
2019-06-01T13:29:50.758Z,46.51
2019-06-01T13:30:53.099Z,46.8
2019-06-01T13:31:50.821Z,46.8
2019-06-01T13:32:51.103Z,47.12
2019-06-01T13:33:54.416Z,46.24
2019-06-01T13:34:51.618Z,46.53
2019-06-01T13:35:50.963Z,47.02
2019-06-01T13:36:51.463Z,47.31
2019-06-01T13:38:06.848Z,46.04
2019-06-01T13:38:51.220Z,46.63
2019-06-01T13:40:05.714Z,46.14
2019-06-01T13:40:51.487Z,46.12
2019-06-01T13:41:53.360Z,46.61
2019-06-01T13:42:51.574Z,46.7
2019-06-01T13:43:51.946Z,46.02
2019-06-01T13:44:51.951Z,46.63
2019-06-01T13:45:52.137Z,46.34
2019-06-01T13:46:51.895Z,45.17
2019-06-01T13:47:52.309Z,45.26
2019-06-01T13:48:52.980Z,44.97
2019-06-01T13:49:52.290Z,45.64
2019-06-01T13:50:52.260Z,45.92